Time;durP1;ratioP1;P1;durP2;ratioP2;P2;SDS_P1;SDS_P2;PMS_P1;PMS_P2;Temp;Humidity;BMP_temperature;BMP_pressure;BME280_temperature;BME280_humidity;BME280_pressure;Samples;Min_cycle;Max_cycle;Signal;HPM_P1;HPM_P2
2021/10/15 00:00:37;;;;;;;18.40;9.80;;;14.70;97.40;;;;;;5031105;28;20026;-71
2021/10/15 00:03:03;;;;;;;16.17;9.88;;;14.70;97.30;;;;;;5032176;28;20037;-71
2021/10/15 00:05:29;;;;;;;15.52;9.10;;;14.70;97.40;;;;;;5032522;28;20038;-72
2021/10/15 00:07:55;;;;;;;20.80;9.88;;;14.60;97.40;;;;;;5032538;28;20408;-72
2021/10/15 00:10:20;;;;;;;15.75;9.07;;;14.70;97.50;;;;;;5032486;28;20179;-72
2021/10/15 00:12:46;;;;;;;15.57;8.93;;;14.70;97.30;;;;;;5031910;28;20367;-72
2021/10/15 00:15:12;;;;;;;14.15;8.00;;;14.70;97.40;;;;;;5032149;28;20371;-72
2021/10/15 00:17:37;;;;;;;15.63;8.82;;;14.70;97.30;;;;;;5032091;28;20025;-72
2021/10/15 00:20:05;;;;;;;18.95;8.48;;;14.70;97.30;;;;;;5032206;28;20494;-71
2021/10/15 00:22:31;;;;;;;17.13;8.57;;;14.60;97.20;;;;;;5032474;28;20383;-72
2021/10/15 00:24:56;;;;;;;15.88;8.48;;;14.60;97.30;;;;;;5031570;28;20647;-72
2021/10/15 00:27:22;;;;;;;14.93;7.95;;;14.60;97.30;;;;;;5032144;28;20068;-72
2021/10/15 00:29:47;;;;;;;17.80;8.05;;;14.60;97.30;;;;;;5031743;28;20025;-72
2021/10/15 00:32:13;;;;;;;16.35;8.52;;;14.60;97.20;;;;;;5031815;28;20037;-72
2021/10/15 00:34:39;;;;;;;11.05;7.22;;;14.60;97.20;;;;;;5032038;28;20033;-73
2021/10/15 00:37:06;;;;;;;14.45;7.95;;;14.60;97.20;;;;;;5031713;28;20040;-72
2021/10/15 00:39:31;;;;;;;19.55;9.00;;;14.50;97.10;;;;;;5031541;28;20033;-72
2021/10/15 00:41:57;;;;;;;18.38;9.23;;;14.50;97.00;;;;;;5031640;28;20026;-72
2021/10/15 00:44:22;;;;;;;13.70;7.25;;;14.60;97.10;;;;;;5031755;28;20039;-72
2021/10/15 00:46:48;;;;;;;16.40;8.13;;;14.60;97.10;;;;;;5031848;28;20033;-73
2021/10/15 00:49:15;;;;;;;14.25;7.82;;;14.50;97.00;;;;;;5031721;28;20124;-73
2021/10/15 00:51:42;;;;;;;14.30;7.45;;;14.50;97.00;;;;;;5031305;28;20040;-72
2021/10/15 00:54:10;;;;;;;11.10;6.93;;;14.50;97.00;;;;;;5031278;28;20053;-72
2021/10/15 00:56:36;;;;;;;15.18;8.02;;;14.50;96.90;;;;;;5031561;28;20057;-73
2021/10/15 00:59:02;;;;;;;15.35;8.48;;;14.50;97.00;;;;;;5031922;28;20443;-73
2021/10/15 01:01:28;;;;;;;13.00;7.80;;;14.50;96.90;;;;;;5031537;28;20112;-72
2021/10/15 01:03:58;;;;;;;13.30;8.40;;;14.50;96.90;;;;;;5030226;28;20471;-72
2021/10/15 01:06:24;;;;;;;16.70;8.50;;;14.40;96.90;;;;;;5031372;28;20033;-72
2021/10/15 01:08:50;;;;;;;16.25;7.85;;;14.50;96.90;;;;;;5031129;28;20351;-72
2021/10/15 01:11:17;;;;;;;15.13;8.30;;;14.40;97.00;;;;;;5031376;28;20471;-72
2021/10/15 01:13:44;;;;;;;15.02;8.43;;;14.40;96.90;;;;;;5030643;28;20120;-73
2021/10/15 01:16:11;;;;;;;14.35;7.30;;;14.40;97.00;;;;;;5031230;28;20057;-70
2021/10/15 01:18:38;;;;;;;18.02;8.63;;;14.40;96.90;;;;;;5031442;28;20044;-72
2021/10/15 01:21:08;;;;;;;17.63;8.27;;;14.50;96.90;;;;;;5031038;28;20030;-73
2021/10/15 01:23:34;;;;;;;18.15;8.07;;;14.40;96.90;;;;;;5031317;28;20030;-72
2021/10/15 01:26:00;;;;;;;17.48;9.07;;;14.40;96.80;;;;;;5031510;28;20466;-72
2021/10/15 01:28:27;;;;;;;14.75;7.97;;;14.50;96.90;;;;;;5031455;28;20026;-72
2021/10/15 01:30:53;;;;;;;16.20;8.20;;;14.50;96.90;;;;;;5031169;28;20026;-72
2021/10/15 01:33:20;;;;;;;17.08;8.00;;;14.40;96.80;;;;;;5031043;28;20102;-72
2021/10/15 01:35:46;;;;;;;16.95;7.90;;;14.40;96.80;;;;;;5038750;28;20025;-73
2021/10/15 01:38:12;;;;;;;19.08;8.73;;;14.50;96.90;;;;;;5050873;28;20335;-73
2021/10/15 01:40:38;;;;;;;14.13;7.82;;;14.50;96.70;;;;;;5052022;28;20027;-72
2021/10/15 01:43:04;;;;;;;16.95;7.70;;;14.50;96.70;;;;;;5050814;28;20108;-72
2021/10/15 01:45:31;;;;;;;15.95;7.88;;;14.50;96.70;;;;;;5050845;28;20040;-72
2021/10/15 01:47:58;;;;;;;21.55;8.63;;;14.50;96.70;;;;;;5050760;28;20021;-72
2021/10/15 01:50:25;;;;;;;14.50;7.03;;;14.40;96.70;;;;;;5050987;28;20109;-72
2021/10/15 01:52:52;;;;;;;13.70;7.78;;;14.50;96.60;;;;;;5051183;28;20032;-72
2021/10/15 01:55:18;;;;;;;14.18;7.30;;;14.40;96.60;;;;;;5050555;28;20036;-72
2021/10/15 01:57:44;;;;;;;18.10;7.70;;;14.50;96.50;;;;;;5051031;28;20119;-72
2021/10/15 02:00:11;;;;;;;13.50;7.60;;;14.50;96.60;;;;;;5050657;28;20132;-72
2021/10/15 02:02:37;;;;;;;11.27;7.60;;;14.40;96.50;;;;;;5050982;28;20033;-72
2021/10/15 02:05:04;;;;;;;10.82;6.95;;;14.40;96.50;;;;;;5050686;28;20461;-71
2021/10/15 02:07:30;;;;;;;13.20;7.03;;;14.40;96.50;;;;;;5050229;28;20128;-72
2021/10/15 02:09:55;;;;;;;12.02;6.75;;;14.50;96.50;;;;;;5050512;28;20434;-72
2021/10/15 02:12:21;;;;;;;14.23;7.20;;;14.50;96.50;;;;;;5052875;28;20032;-72
2021/10/15 02:14:46;;;;;;;13.07;6.47;;;14.40;96.70;;;;;;5054534;28;20498;-72
2021/10/15 02:17:12;;;;;;;13.15;6.15;;;14.50;96.50;;;;;;5054120;28;20033;-75
2021/10/15 02:19:38;;;;;;;18.35;7.43;;;14.50;96.40;;;;;;5055213;28;20025;-72
2021/10/15 02:22:04;;;;;;;15.32;6.80;;;14.40;96.20;;;;;;5054119;28;20132;-72
2021/10/15 02:24:29;;;;;;;14.07;6.93;;;14.40;96.30;;;;;;5054162;28;20047;-72
2021/10/15 02:26:56;;;;;;;15.77;6.80;;;14.40;96.30;;;;;;5053080;28;20040;-72
2021/10/15 02:29:22;;;;;;;16.90;6.82;;;14.40;96.30;;;;;;5053864;28;20032;-72
2021/10/15 02:31:47;;;;;;;9.88;6.15;;;14.40;96.20;;;;;;5053615;28;20025;-72
2021/10/15 02:34:14;;;;;;;13.95;6.88;;;14.40;96.20;;;;;;5053828;28;20044;-71
2021/10/15 02:36:40;;;;;;;18.38;7.07;;;14.40;96.20;;;;;;5053944;28;20040;-72
2021/10/15 02:39:05;;;;;;;13.25;5.93;;;14.40;96.20;;;;;;5053782;28;20021;-72
2021/10/15 02:41:31;;;;;;;11.57;6.22;;;14.40;96.20;;;;;;5053702;28;20471;-73
2021/10/15 02:43:57;;;;;;;15.25;6.03;;;14.40;96.20;;;;;;5054177;28;20114;-71
2021/10/15 02:46:22;;;;;;;14.02;6.35;;;14.30;96.10;;;;;;5053726;28;20179;-72
2021/10/15 02:48:48;;;;;;;15.32;6.38;;;14.30;96.10;;;;;;5053803;28;20044;-72
2021/10/15 02:51:13;;;;;;;13.05;5.70;;;14.30;96.10;;;;;;5053586;28;20439;-72
2021/10/15 02:53:39;;;;;;;11.02;5.60;;;14.30;96.10;;;;;;5053620;28;20065;-72
2021/10/15 02:56:06;;;;;;;18.60;5.78;;;14.30;96.10;;;;;;5053506;28;20028;-72
2021/10/15 02:58:33;;;;;;;10.50;5.85;;;14.30;95.90;;;;;;5054210;28;20618;-72
2021/10/15 03:00:59;;;;;;;10.32;5.20;;;14.30;96.00;;;;;;5053432;28;20041;-72
2021/10/15 03:03:25;;;;;;;10.75;6.05;;;14.30;96.00;;;;;;5053417;28;20067;-72
2021/10/15 03:05:50;;;;;;;13.65;5.53;;;14.30;95.90;;;;;;5052414;28;20057;-72
2021/10/15 03:08:16;;;;;;;10.15;5.07;;;14.30;95.80;;;;;;5053324;28;20028;-72
2021/10/15 03:10:41;;;;;;;13.52;5.93;;;14.30;95.90;;;;;;5053514;28;20064;-72
2021/10/15 03:13:07;;;;;;;11.50;5.40;;;14.30;96.00;;;;;;5053080;28;20048;-72
2021/10/15 03:15:33;;;;;;;10.20;5.35;;;14.30;95.80;;;;;;5053193;28;20025;-72
2021/10/15 03:17:59;;;;;;;10.73;5.38;;;14.30;95.90;;;;;;5053022;28;20478;-73
2021/10/15 03:20:24;;;;;;;14.00;5.38;;;14.30;95.80;;;;;;5053104;28;20405;-72
2021/10/15 03:22:50;;;;;;;13.07;5.28;;;14.30;96.20;;;;;;5052564;28;20025;-72
2021/10/15 03:25:15;;;;;;;9.50;5.38;;;14.30;95.90;;;;;;5052954;28;20029;-72
2021/10/15 03:27:41;;;;;;;14.13;5.57;;;14.30;95.80;;;;;;5053016;28;20025;-72
2021/10/15 03:30:07;;;;;;;14.68;5.15;;;14.20;95.80;;;;;;5052771;28;20371;-71
2021/10/15 03:32:33;;;;;;;13.48;5.05;;;14.30;95.80;;;;;;5052781;28;20033;-71
2021/10/15 03:34:59;;;;;;;12.55;4.82;;;14.20;95.70;;;;;;5052948;28;20036;-71
2021/10/15 03:37:24;;;;;;;10.30;5.03;;;14.30;95.80;;;;;;5052363;28;20048;-71
2021/10/15 03:39:53;;;;;;;9.00;5.43;;;14.20;95.70;;;;;;5052742;28;20097;-71
2021/10/15 03:42:19;;;;;;;12.38;4.95;;;14.20;95.70;;;;;;5052562;28;20101;-72
2021/10/15 03:44:45;;;;;;;8.73;5.10;;;14.20;95.70;;;;;;5052596;28;20032;-72
2021/10/15 03:47:11;;;;;;;11.75;4.35;;;14.20;95.80;;;;;;5052632;28;20017;-72
2021/10/15 03:49:37;;;;;;;15.55;5.50;;;14.20;95.80;;;;;;5052969;28;20033;-72
2021/10/15 03:52:03;;;;;;;12.60;5.57;;;14.30;95.80;;;;;;5052518;28;20036;-72
2021/10/15 03:54:29;;;;;;;11.85;5.25;;;14.20;95.60;;;;;;5052074;28;20041;-73
2021/10/15 03:56:54;;;;;;;6.97;4.78;;;14.20;95.60;;;;;;5052490;28;20044;-72
2021/10/15 03:59:20;;;;;;;9.52;4.35;;;14.30;95.60;;;;;;5052153;28;20457;-72
2021/10/15 04:01:46;;;;;;;8.30;4.72;;;14.30;95.60;;;;;;5052822;28;20351;-72
2021/10/15 04:04:11;;;;;;;10.35;4.32;;;14.30;95.50;;;;;;5052251;28;20120;-72
2021/10/15 04:06:37;;;;;;;12.77;5.00;;;14.30;95.50;;;;;;5052095;28;20071;-72
2021/10/15 04:09:03;;;;;;;15.68;4.88;;;14.30;95.30;;;;;;5052101;28;20044;-72
2021/10/15 04:11:29;;;;;;;7.65;4.22;;;14.30;95.40;;;;;;5051988;28;20029;-72
2021/10/15 04:13:55;;;;;;;13.57;4.57;;;14.30;95.30;;;;;;5052273;28;20032;-72
2021/10/15 04:16:21;;;;;;;13.27;5.07;;;14.30;95.20;;;;;;5051832;28;20029;-72
2021/10/15 04:18:46;;;;;;;12.98;4.97;;;14.30;95.20;;;;;;5052052;28;20029;-72
2021/10/15 04:21:12;;;;;;;10.98;4.93;;;14.20;95.20;;;;;;5051665;28;20033;-72
2021/10/15 04:23:37;;;;;;;7.88;4.38;;;14.20;95.20;;;;;;5051770;28;20051;-72
2021/10/15 04:26:03;;;;;;;14.50;4.50;;;14.20;95.20;;;;;;5052235;28;20348;-71
2021/10/15 04:28:28;;;;;;;12.70;5.32;;;14.20;95.30;;;;;;5051132;28;20649;-71
2021/10/15 04:30:54;;;;;;;10.68;4.50;;;14.10;95.10;;;;;;5050625;28;20064;-72
2021/10/15 04:33:20;;;;;;;9.35;4.93;;;14.20;95.20;;;;;;5051537;28;20040;-72
2021/10/15 04:35:46;;;;;;;9.23;4.53;;;14.20;95.10;;;;;;5051279;28;20029;-72
2021/10/15 04:38:11;;;;;;;11.60;4.32;;;14.20;95.20;;;;;;5051321;28;20094;-72
2021/10/15 04:40:37;;;;;;;16.38;4.47;;;14.20;95.10;;;;;;5051889;28;20174;-72
2021/10/15 04:43:03;;;;;;;10.27;4.35;;;14.10;95.10;;;;;;5051536;28;20032;-72
2021/10/15 04:45:29;;;;;;;10.73;4.60;;;14.20;95.20;;;;;;5051558;28;20036;-71
2021/10/15 04:47:54;;;;;;;13.30;4.10;;;14.20;95.10;;;;;;5051611;28;20029;-73
2021/10/15 04:50:20;;;;;;;10.40;4.18;;;14.20;95.00;;;;;;5051272;28;20028;-72
2021/10/15 04:52:46;;;;;;;10.40;4.53;;;14.20;95.00;;;;;;5052051;28;20060;-71
2021/10/15 04:55:11;;;;;;;6.75;3.47;;;14.20;95.30;;;;;;5051280;28;20025;-71
2021/10/15 04:57:37;;;;;;;11.15;3.80;;;14.20;94.80;;;;;;5051323;28;20104;-71
2021/10/15 05:00:05;;;;;;;7.68;3.88;;;14.20;94.90;;;;;;5050436;28;20044;-72
2021/10/15 05:02:30;;;;;;;10.75;4.30;;;14.20;94.80;;;;;;5051117;28;20036;-72
2021/10/15 05:04:56;;;;;;;8.63;3.83;;;14.10;94.80;;;;;;5051799;28;20100;-72
2021/10/15 05:07:24;;;;;;;17.60;7.30;;;14.20;94.90;;;;;;5051136;28;20021;-72
2021/10/15 05:09:50;;;;;;;11.57;4.47;;;14.20;94.80;;;;;;5050973;28;20475;-72
2021/10/15 05:12:16;;;;;;;8.05;3.67;;;14.20;94.70;;;;;;5051189;28;20147;-71
2021/10/15 05:14:42;;;;;;;7.07;3.42;;;14.20;94.80;;;;;;5050956;28;20099;-72
2021/10/15 05:17:08;;;;;;;10.80;3.47;;;14.20;94.80;;;;;;5050125;28;20037;-72
2021/10/15 05:19:34;;;;;;;6.60;3.20;;;14.20;94.70;;;;;;5051821;28;20021;-71
2021/10/15 05:22:00;;;;;;;8.63;4.47;;;14.10;94.60;;;;;;5051077;28;20044;-73
2021/10/15 05:24:27;;;;;;;5.85;4.07;;;14.10;94.60;;;;;;5050473;28;20083;-72
2021/10/15 05:26:53;;;;;;;11.50;3.17;;;14.20;94.60;;;;;;5051180;28;20064;-73
2021/10/15 05:29:18;;;;;;;9.02;3.55;;;14.10;94.50;;;;;;5050694;28;20020;-72
2021/10/15 05:31:44;;;;;;;8.45;3.67;;;14.10;94.40;;;;;;5051447;28;20055;-73
2021/10/15 05:34:10;;;;;;;11.75;3.75;;;14.10;94.50;;;;;;5049667;28;20041;-73
2021/10/15 05:36:36;;;;;;;8.25;3.60;;;14.10;94.60;;;;;;5049722;28;20049;-73
2021/10/15 05:39:03;;;;;;;9.02;3.60;;;14.10;94.50;;;;;;5050785;28;20052;-73
2021/10/15 05:41:28;;;;;;;7.50;3.50;;;14.10;94.50;;;;;;5050478;28;20036;-72
2021/10/15 05:43:54;;;;;;;12.52;3.72;;;14.10;94.60;;;;;;5051158;28;20025;-71
2021/10/15 05:46:20;;;;;;;8.13;3.45;;;14.10;94.50;;;;;;5051447;28;20033;-72
2021/10/15 05:48:45;;;;;;;8.48;3.88;;;14.10;94.50;;;;;;5054449;28;20071;-71
2021/10/15 05:51:11;;;;;;;11.70;3.92;;;14.00;94.50;;;;;;5054591;28;20037;-71
2021/10/15 05:53:37;;;;;;;8.65;3.80;;;14.10;94.60;;;;;;5054501;28;20128;-70
2021/10/15 06:01:15;;;;;;;9.80;4.15;;;14.00;94.60;;;;;;5054099;28;20029;-69
2021/10/15 06:03:43;;;;;;;7.88;4.05;;;14.00;94.80;;;;;;5053877;28;20029;-71
2021/10/15 06:14:12;;;;;;;7.68;3.92;;;14.00;94.70;;;;;;5054089;28;20075;-70
2021/10/15 06:14:38;;;;;;;7.95;4.00;;;14.10;94.70;;;;;;5053804;28;20033;-71
2021/10/15 06:17:10;;;;;;;10.75;4.68;;;14.00;94.70;;;;;;5052793;28;20033;-70
2021/10/15 06:19:54;;;;;;;14.95;4.60;;;14.00;94.70;;;;;;5054213;28;20096;-71
2021/10/15 06:22:27;;;;;;;8.23;4.13;;;14.00;94.60;;;;;;5053937;28;20335;-69
2021/10/15 06:24:53;;;;;;;10.27;4.13;;;14.00;94.70;;;;;;5053986;28;20037;-70
2021/10/15 06:27:21;;;;;;;10.90;4.80;;;14.00;94.60;;;;;;5053817;28;20423;-70
2021/10/15 06:29:48;;;;;;;12.70;4.28;;;14.00;94.60;;;;;;5052625;28;20033;-70
2021/10/15 06:32:17;;;;;;;8.82;4.68;;;14.00;94.60;;;;;;5053872;28;20013;-70
2021/10/15 06:34:43;;;;;;;9.65;4.55;;;14.10;94.50;;;;;;5053941;28;20451;-69
2021/10/15 06:37:09;;;;;;;13.88;4.25;;;14.00;94.40;;;;;;5053722;28;20120;-70
2021/10/15 06:39:35;;;;;;;12.90;4.63;;;14.10;94.60;;;;;;5053563;28;20116;-71
2021/10/15 06:42:00;;;;;;;9.82;4.50;;;14.10;94.60;;;;;;5035459;28;20049;-70
2021/10/15 06:44:26;;;;;;;17.10;6.32;;;14.00;94.50;;;;;;5033779;28;20092;-71
2021/10/15 06:46:52;;;;;;;12.60;4.88;;;14.10;94.60;;;;;;5033761;28;20100;-71
2021/10/15 06:49:18;;;;;;;14.07;5.25;;;14.10;94.60;;;;;;5031930;28;20036;-71
2021/10/15 06:51:44;;;;;;;10.82;4.60;;;14.10;94.60;;;;;;5033031;28;20037;-72
2021/10/15 06:54:09;;;;;;;12.25;4.57;;;14.10;94.60;;;;;;5032902;28;20044;-71
2021/10/15 06:56:35;;;;;;;8.80;4.38;;;14.10;94.60;;;;;;5032957;28;20324;-71
2021/10/15 06:59:01;;;;;;;9.00;4.72;;;14.10;94.50;;;;;;5033234;28;20067;-71
2021/10/15 07:01:26;;;;;;;14.15;5.20;;;14.10;94.50;;;;;;5032754;28;20506;-72
2021/10/15 07:03:52;;;;;;;8.15;4.82;;;14.10;94.70;;;;;;5032824;28;20026;-71
2021/10/15 07:06:17;;;;;;;19.90;5.13;;;14.10;94.70;;;;;;5032770;28;20120;-72
2021/10/15 07:08:43;;;;;;;13.68;4.70;;;14.10;94.70;;;;;;5032568;28;20466;-73
2021/10/15 07:11:08;;;;;;;9.70;4.03;;;14.20;94.70;;;;;;5032824;28;20199;-74
2021/10/15 07:13:34;;;;;;;11.70;4.22;;;14.20;94.70;;;;;;5033249;28;20025;-71
2021/10/15 07:16:00;;;;;;;9.98;4.75;;;14.20;94.70;;;;;;5032797;28;20042;-70
2021/10/15 07:18:25;;;;;;;14.73;4.70;;;14.20;94.70;;;;;;5032627;28;20025;-70
2021/10/15 07:20:51;;;;;;;12.38;4.32;;;14.20;94.70;;;;;;5031140;28;20030;-71
2021/10/15 07:23:17;;;;;;;11.60;4.68;;;14.20;94.80;;;;;;5032720;28;20032;-71
2021/10/15 07:25:43;;;;;;;9.50;4.40;;;14.20;94.80;;;;;;5032685;28;20119;-72
2021/10/15 07:28:13;;;;;;;16.10;6.22;;;14.20;94.80;;;;;;5032316;28;20041;-71
2021/10/15 07:30:39;;;;;;;11.48;4.32;;;14.30;94.80;;;;;;5032230;28;20049;-71
2021/10/15 07:33:04;;;;;;;15.48;4.75;;;14.30;94.90;;;;;;5032258;28;20417;-70
2021/10/15 07:35:30;;;;;;;12.18;4.63;;;14.30;94.90;;;;;;5030745;28;20033;-72
2021/10/15 07:37:56;;;;;;;9.38;4.65;;;14.30;94.90;;;;;;5032564;28;20029;-70
2021/10/15 07:40:21;;;;;;;12.77;5.80;;;14.30;95.00;;;;;;5031771;28;20350;-69
2021/10/15 07:42:47;;;;;;;15.15;4.82;;;14.20;95.00;;;;;;5030939;28;20048;-70
2021/10/15 07:45:13;;;;;;;18.65;5.88;;;14.20;95.00;;;;;;5032077;28;20084;-73
2021/10/15 07:47:38;;;;;;;12.85;5.57;;;14.20;95.10;;;;;;5030780;28;20041;-72
2021/10/15 07:50:04;;;;;;;12.23;5.03;;;14.30;95.10;;;;;;5031981;28;20025;-72
2021/10/15 07:52:30;;;;;;;17.27;5.85;;;14.30;95.10;;;;;;5032265;28;20462;-73
2021/10/15 07:54:56;;;;;;;10.07;4.82;;;14.30;95.10;;;;;;5031767;28;20053;-73
2021/10/15 07:57:22;;;;;;;11.63;5.43;;;14.30;95.10;;;;;;5031778;28;20048;-73
2021/10/15 07:59:47;;;;;;;14.10;5.22;;;14.30;95.10;;;;;;5031401;28;20052;-73
2021/10/15 08:02:13;;;;;;;12.10;4.78;;;14.30;95.20;;;;;;5031732;28;20029;-72
2021/10/15 08:04:39;;;;;;;11.23;4.95;;;14.30;95.20;;;;;;5032136;28;20749;-73
2021/10/15 08:07:04;;;;;;;13.32;5.80;;;14.30;95.30;;;;;;5031669;28;20038;-73
2021/10/15 08:09:30;;;;;;;11.02;5.18;;;14.30;95.30;;;;;;5030964;28;20152;-73
2021/10/15 08:11:56;;;;;;;11.25;5.03;;;14.30;95.40;;;;;;5031614;28;20030;-72
2021/10/15 08:14:22;;;;;;;12.68;5.22;;;14.40;95.40;;;;;;5031515;28;20037;-71
2021/10/15 08:16:49;;;;;;;21.08;5.50;;;14.40;95.30;;;;;;5031985;28;20074;-72
2021/10/15 08:19:15;;;;;;;10.88;5.25;;;14.30;95.30;;;;;;5031677;28;20114;-73
2021/10/15 08:21:41;;;;;;;10.32;5.25;;;14.40;95.40;;;;;;5031550;28;20741;-73
2021/10/15 08:24:09;;;;;;;12.10;5.60;;;14.40;95.60;;;;;;5030284;28;20112;-73
2021/10/15 08:26:35;;;;;;;11.15;5.43;;;14.30;95.80;;;;;;5030281;28;20113;-73
2021/10/15 08:29:00;;;;;;;11.77;5.68;;;14.30;96.20;;;;;;5031752;28;20063;-72
2021/10/15 08:31:27;;;;;;;15.75;5.60;;;14.30;96.40;;;;;;5031358;28;20071;-73
2021/10/15 08:33:54;;;;;;;11.57;6.07;;;14.20;96.90;;;;;;5031347;28;20500;-73
2021/10/15 08:36:22;;;;;;;11.43;7.05;;;14.30;97.40;;;;;;5031514;28;20048;-72
2021/10/15 08:38:51;;;;;;;14.55;6.63;;;14.10;98.00;;;;;;5031429;28;20084;-71
2021/10/15 08:41:23;;;;;;;13.95;6.10;;;14.10;98.20;;;;;;5031287;28;20057;-71
2021/10/15 08:43:53;;;;;;;12.98;7.25;;;14.00;98.30;;;;;;5031362;28;20025;-72
2021/10/15 08:46:19;;;;;;;10.95;6.80;;;14.00;98.50;;;;;;5031082;28;20040;-73
2021/10/15 08:48:45;;;;;;;12.45;6.93;;;13.80;98.70;;;;;;5030824;28;20037;-71
2021/10/15 08:51:11;;;;;;;15.30;7.13;;;13.90;98.80;;;;;;5030816;28;20033;-72
2021/10/15 08:53:47;;;;;;;14.20;7.60;;;13.90;98.90;;;;;;5030890;28;20069;-72
2021/10/15 08:56:15;;;;;;;13.32;7.80;;;13.70;99.40;;;;;;5030896;28;20084;-72
2021/10/15 08:58:45;;;;;;;;;;;13.70;99.80;;;;;;5031614;28;20025;-73
2021/10/15 09:01:11;;;;;;;14.70;8.23;;;13.70;99.90;;;;;;5030873;28;20222;-72
2021/10/15 09:03:36;;;;;;;16.30;6.30;;;13.60;99.90;;;;;;5031017;28;20030;-72
2021/10/15 09:06:04;;;;;;;7.95;4.20;;;13.40;99.90;;;;;;5030680;28;20037;-72
2021/10/15 09:08:53;;;;;;;6.53;3.20;;;13.40;99.70;;;;;;5030645;28;20091;-72
2021/10/15 09:11:39;;;;;;;5.93;3.20;;;13.20;99.60;;;;;;5030930;28;20725;-70
2021/10/15 09:14:17;;;;;;;4.63;2.15;;;13.20;99.90;;;;;;5030533;28;20029;-75
2021/10/15 09:17:03;;;;;;;6.28;2.30;;;13.30;99.90;;;;;;5029913;28;20024;-75
2021/10/15 09:19:43;;;;;;;2.67;1.70;;;13.30;99.90;;;;;;5030840;28;20042;-74
2021/10/15 09:22:20;;;;;;;7.25;2.15;;;13.40;99.80;;;;;;5031834;28;20037;-74
2021/10/15 09:24:59;;;;;;;2.58;1.25;;;13.50;99.80;;;;;;5034714;28;20036;-73
2021/10/15 09:27:34;;;;;;;4.90;1.63;;;13.40;99.70;;;;;;5034517;28;20034;-74
2021/10/15 09:30:06;;;;;;;2.47;1.15;;;13.30;99.80;;;;;;5034774;28;20034;-73
2021/10/15 09:32:34;;;;;;;2.53;1.42;;;13.40;99.70;;;;;;5034622;28;20410;-75
2021/10/15 09:35:01;;;;;;;3.65;1.08;;;13.50;99.60;;;;;;5034779;28;20053;-75
2021/10/15 09:37:29;;;;;;;3.22;1.88;;;13.50;99.50;;;;;;5034533;28;20022;-75
2021/10/15 09:40:03;;;;;;;1.95;1.10;;;13.40;99.30;;;;;;5034383;28;20059;-75
2021/10/15 09:42:30;;;;;;;5.57;1.20;;;13.20;99.50;;;;;;5034358;28;20021;-75
2021/10/15 09:45:04;;;;;;;2.97;1.00;;;13.20;99.70;;;;;;5034385;28;20040;-76
2021/10/15 09:47:30;;;;;;;2.25;1.10;;;13.30;99.60;;;;;;5034423;28;20099;-75
2021/10/15 09:50:03;;;;;;;5.25;1.42;;;13.40;99.40;;;;;;5034674;28;20033;-74
2021/10/15 09:52:29;;;;;;;5.20;1.20;;;13.50;99.40;;;;;;5033346;28;20042;-74
2021/10/15 09:54:59;;;;;;;2.05;0.95;;;13.50;99.20;;;;;;5034202;28;20486;-75
2021/10/15 09:57:39;;;;;;;3.33;1.02;;;13.50;99.40;;;;;;5033928;28;20033;-74
2021/10/15 10:00:10;;;;;;;2.53;1.35;;;13.40;99.40;;;;;;5034311;28;20037;-74
2021/10/15 10:02:36;;;;;;;5.05;1.48;;;13.40;99.90;;;;;;5034010;28;20026;-75
2021/10/15 10:05:04;;;;;;;6.03;1.05;;;13.50;99.70;;;;;;5034625;28;20454;-73
2021/10/15 10:07:29;;;;;;;4.20;1.40;;;13.50;99.70;;;;;;5034455;28;20038;-75
2021/10/15 10:09:55;;;;;;;3.42;0.85;;;13.60;99.50;;;;;;5033521;28;20065;-73
2021/10/15 10:12:21;;;;;;;3.97;0.95;;;13.50;99.30;;;;;;5033906;28;20096;-75
2021/10/15 10:14:47;;;;;;;5.18;0.70;;;13.40;99.50;;;;;;5033923;28;20030;-76
2021/10/15 10:17:19;;;;;;;4.93;1.35;;;13.40;99.20;;;;;;5033896;28;20087;-76
2021/10/15 10:19:47;;;;;;;3.15;0.88;;;13.50;99.00;;;;;;5034203;28;20127;-72
2021/10/15 10:22:15;;;;;;;2.00;0.80;;;13.30;98.90;;;;;;5033466;28;20494;-74
2021/10/15 10:24:46;;;;;;;1.60;0.50;;;13.30;99.10;;;;;;5033448;28;20121;-74
2021/10/15 10:27:23;;;;;;;1.42;0.55;;;13.20;99.10;;;;;;5033473;28;20060;-76
2021/10/15 10:29:53;;;;;;;4.47;1.08;;;13.20;99.40;;;;;;5033578;28;20025;-74
2021/10/15 10:32:19;;;;;;;5.28;0.70;;;13.30;99.40;;;;;;5032016;28;20061;-72
2021/10/15 10:34:44;;;;;;;2.30;0.70;;;13.40;98.80;;;;;;5034197;28;20095;-72
2021/10/15 10:37:13;;;;;;;1.92;0.70;;;13.40;99.00;;;;;;5032335;28;20113;-73
2021/10/15 10:39:39;;;;;;;2.47;1.00;;;13.40;99.30;;;;;;5033416;28;20022;-73
2021/10/15 10:42:08;;;;;;;4.05;0.95;;;13.40;98.80;;;;;;5033161;28;20545;-73
2021/10/15 10:44:35;;;;;;;1.67;0.85;;;13.40;99.00;;;;;;5032984;28;20040;-74
2021/10/15 10:47:19;;;;;;;2.08;0.70;;;13.30;98.80;;;;;;5033880;28;20032;-75
2021/10/15 10:50:07;;;;;;;5.28;0.70;;;13.30;98.80;;;;;;5033472;28;20041;-75
2021/10/15 10:52:40;;;;;;;1.40;0.60;;;13.40;99.20;;;;;;5033358;28;20038;-75
2021/10/15 10:55:06;;;;;;;2.50;0.82;;;13.40;98.90;;;;;;5033191;28;20034;-74
2021/10/15 10:57:40;;;;;;;2.53;0.93;;;13.40;98.80;;;;;;5032917;28;20144;-75
2021/10/15 11:00:22;;;;;;;4.55;1.08;;;13.50;99.10;;;;;;5032990;28;20033;-75
2021/10/15 11:02:56;;;;;;;2.00;0.70;;;13.30;99.00;;;;;;5032858;28;20036;-72
2021/10/15 11:05:37;;;;;;;2.28;0.80;;;13.30;99.40;;;;;;5032902;28;20033;-72
2021/10/15 11:08:24;;;;;;;1.15;0.60;;;13.30;99.30;;;;;;5033178;28;20053;-72
2021/10/15 11:11:13;;;;;;;2.17;0.63;;;13.40;99.70;;;;;;5032788;28;20111;-71
2021/10/15 11:13:38;;;;;;;1.73;0.90;;;13.40;99.50;;;;;;5032356;28;20051;-71
2021/10/15 11:16:24;;;;;;;0.50;0.40;;;13.40;99.60;;;;;;5032843;28;20363;-75
2021/10/15 11:18:50;;;;;;;1.50;0.90;;;13.60;99.40;;;;;;5032673;28;20037;-72
2021/10/15 11:21:17;;;;;;;1.95;0.98;;;13.70;99.60;;;;;;5032364;28;20471;-74
2021/10/15 11:23:43;;;;;;;2.42;1.20;;;13.80;99.30;;;;;;5032642;28;20035;-73
2021/10/15 11:26:08;;;;;;;2.55;1.20;;;14.10;99.30;;;;;;5032887;28;20331;-73
2021/10/15 11:28:34;;;;;;;3.15;1.40;;;14.30;99.10;;;;;;5033015;28;20080;-72
2021/10/15 11:31:00;;;;;;;1.77;0.90;;;14.50;98.90;;;;;;5032412;28;20495;-72
2021/10/15 11:33:26;;;;;;;0.98;0.60;;;14.60;98.20;;;;;;5032302;28;20420;-73
2021/10/15 11:35:54;;;;;;;1.92;0.90;;;15.00;98.10;;;;;;5032502;28;20041;-74
2021/10/15 11:38:25;;;;;;;3.08;1.10;;;15.00;97.30;;;;;;5032382;28;20021;-75
2021/10/15 11:40:52;;;;;;;2.53;0.65;;;15.00;97.20;;;;;;5032376;28;20024;-73
2021/10/15 11:43:32;;;;;;;2.13;0.98;;;14.70;97.00;;;;;;5031866;28;20079;-73
2021/10/15 11:46:09;;;;;;;5.57;1.17;;;14.50;97.30;;;;;;5031543;28;20029;-72
2021/10/15 11:48:45;;;;;;;2.35;0.90;;;14.80;97.60;;;;;;5031978;28;20033;-72
2021/10/15 11:51:25;;;;;;;3.20;1.35;;;14.90;96.90;;;;;;5032043;28;20108;-73
2021/10/15 11:53:56;;;;;;;4.72;0.90;;;15.20;97.20;;;;;;5031892;28;20037;-72
2021/10/15 11:56:30;;;;;;;11.93;4.65;;;15.40;96.60;;;;;;5031829;28;20029;-73
2021/10/15 11:58:58;;;;;;;7.03;2.03;;;15.30;95.60;;;;;;5032284;28;20075;-70
2021/10/15 12:01:34;;;;;;;5.53;1.15;;;15.20;96.00;;;;;;5031926;28;20034;-73
2021/10/15 12:04:04;;;;;;;4.68;1.20;;;15.10;95.70;;;;;;5031982;28;20111;-74
2021/10/15 12:06:33;;;;;;;5.35;1.30;;;15.20;96.00;;;;;;5031568;28;20542;-72
2021/10/15 12:09:11;;;;;;;2.85;0.85;;;15.30;96.20;;;;;;5031368;28;20113;-69
2021/10/15 12:11:40;;;;;;;5.43;1.00;;;15.40;95.60;;;;;;5031719;28;20116;-71
2021/10/15 12:14:30;;;;;;;9.15;1.40;;;15.50;95.80;;;;;;5031318;28;20444;-72
2021/10/15 12:16:58;;;;;;;7.93;1.25;;;15.50;95.50;;;;;;5031994;28;20021;-71
2021/10/15 12:19:25;;;;;;;8.65;0.95;;;15.60;94.80;;;;;;5030547;28;20375;-69
2021/10/15 12:21:56;;;;;;;7.88;1.48;;;15.70;94.70;;;;;;5031343;28;20022;-69
2021/10/15 12:24:27;;;;;;;5.47;1.30;;;15.60;94.60;;;;;;5031086;28;20040;-70
2021/10/15 12:27:11;;;;;;;8.57;1.30;;;15.70;94.00;;;;;;5030970;28;20021;-71
2021/10/15 12:29:52;;;;;;;6.10;1.30;;;15.70;94.40;;;;;;5028237;28;20483;-71
2021/10/15 12:32:33;;;;;;;6.45;1.33;;;15.90;94.00;;;;;;5031460;28;20025;-71
2021/10/15 12:35:01;;;;;;;12.25;1.65;;;16.00;94.10;;;;;;5031790;28;20125;-70
2021/10/15 12:37:35;;;;;;;8.85;1.75;;;15.90;93.60;;;;;;5031313;28;20060;-72
2021/10/15 12:40:29;;;;;;;7.90;3.10;;;15.80;93.40;;;;;;5031268;28;20032;-73
2021/10/15 12:42:54;;;;;;;8.45;1.50;;;15.90;93.60;;;;;;5031099;28;20029;-73
2021/10/15 12:45:21;;;;;;;14.40;1.75;;;16.00;93.60;;;;;;5031283;28;20463;-72
2021/10/15 12:48:06;;;;;;;6.40;1.37;;;16.00;93.50;;;;;;5031262;28;20022;-71
2021/10/15 12:50:35;;;;;;;5.18;1.33;;;16.00;93.70;;;;;;5031198;28;20088;-71
2021/10/15 12:53:18;;;;;;;7.13;1.63;;;16.10;93.30;;;;;;5031555;28;20474;-72
2021/10/15 12:56:02;;;;;;;10.48;2.35;;;16.00;93.10;;;;;;5031103;28;20454;-72